createdAt,value
2023-05-09T00:02:29.460Z,102129.97
2023-05-09T00:07:31.509Z,102121.72
2023-05-09T00:12:32.947Z,102110.72
2023-05-09T00:17:35.104Z,102111.81
2023-05-09T00:22:36.578Z,102111.75
2023-05-09T00:27:38.267Z,102098.06
2023-05-09T00:32:40.022Z,102089.66
2023-05-09T00:37:41.583Z,102083.78
2023-05-09T00:42:43.012Z,102081.25
2023-05-09T00:47:44.572Z,102084.63
2023-05-09T00:52:46.337Z,102069.91
2023-05-09T00:57:47.779Z,102057.97
2023-05-09T01:02:53.349Z,102046.13
2023-05-09T01:08:06.783Z,102034.78
2023-05-09T01:13:27.038Z,102036.97
2023-05-09T01:18:49.745Z,102037.94
2023-05-09T01:24:20.498Z,102032.25
2023-05-09T01:29:36.750Z,102024.63
2023-05-09T01:34:40.991Z,102029.09
2023-05-09T01:39:47.926Z,102013.88
2023-05-09T01:44:50.620Z,102020.16
2023-05-09T01:49:53.302Z,102027.16
2023-05-09T01:54:55.737Z,102042.03
2023-05-09T01:59:58.106Z,102038.19
2023-05-09T02:05:01.428Z,102032.84
2023-05-09T02:10:03.671Z,102022.13
2023-05-09T02:15:06.704Z,102021.22
2023-05-09T02:20:10.082Z,102007.66
2023-05-09T02:25:12.861Z,102009.44
2023-05-09T02:30:19.446Z,101999.09
2023-05-09T02:35:23.368Z,101989.50
2023-05-09T02:40:26.575Z,101990.34
2023-05-09T02:45:28.697Z,102000.56
2023-05-09T02:50:30.475Z,101983.44
2023-05-09T02:55:32.015Z,101986.06
2023-05-09T03:00:33.424Z,101965.59
2023-05-09T03:05:35.305Z,101965.88
2023-05-09T03:10:36.978Z,101972.06
2023-05-09T03:15:38.506Z,101974.00
2023-05-09T03:20:40.857Z,101962.91
2023-05-09T03:25:42.581Z,101961.38
2023-05-09T03:30:44.130Z,101947.75
2023-05-09T03:35:49.154Z,101955.72
2023-05-09T03:40:51.308Z,101946.28
2023-05-09T03:45:52.916Z,101936.66
2023-05-09T03:50:54.497Z,101938.31
2023-05-09T03:55:57.738Z,101922.03
2023-05-09T04:01:00.925Z,101926.44
2023-05-09T04:06:02.449Z,101925.63
2023-05-09T04:11:11.431Z,101926.56
2023-05-09T04:16:16.415Z,101925.03
2023-05-09T04:21:18.384Z,101919.69
2023-05-09T04:26:23.305Z,101904.28
2023-05-09T04:31:28.328Z,101913.56
2023-05-09T04:36:30.672Z,101931.28
2023-05-09T04:41:33.654Z,101922.09
2023-05-09T04:46:35.364Z,101933.97
2023-05-09T04:51:37.424Z,101932.44
2023-05-09T04:56:38.874Z,101925.84
2023-05-09T05:01:40.405Z,101906.78
2023-05-09T05:06:41.964Z,101899.31
2023-05-09T05:11:53.813Z,101900.88
2023-05-09T05:17:00.397Z,101888.91
2023-05-09T05:22:01.946Z,101893.78
2023-05-09T05:27:05.493Z,101894.81
2023-05-09T05:32:07.119Z,101887.56
2023-05-09T05:37:09.311Z,101885.28
2023-05-09T05:42:10.928Z,101867.09
2023-05-09T05:47:12.703Z,101851.97
2023-05-09T05:52:14.775Z,101845.25
2023-05-09T05:57:18.649Z,101839.84
2023-05-09T06:02:20.235Z,101841.81
2023-05-09T06:07:22.540Z,101837.66
2023-05-09T06:12:25.208Z,101836.13
2023-05-09T06:17:28.011Z,101849.88
2023-05-09T06:22:30.595Z,101842.16
2023-05-09T06:27:32.071Z,101825.19
2023-05-09T06:32:33.559Z,101814.03
2023-05-09T06:37:35.078Z,101817.00
2023-05-09T06:42:36.494Z,101801.03
2023-05-09T06:47:37.957Z,101812.34
2023-05-09T06:52:39.418Z,101794.09
2023-05-09T06:57:40.948Z,101792.75
2023-05-09T07:02:42.642Z,101781.31
2023-05-09T07:07:44.237Z,101772.72
2023-05-09T07:12:45.747Z,101775.28
2023-05-09T07:17:47.279Z,101770.50
2023-05-09T07:22:48.825Z,101757.91
2023-05-09T07:27:50.419Z,101754.91
2023-05-09T07:32:52.356Z,101746.44
2023-05-09T07:37:53.904Z,101735.41
2023-05-09T07:42:55.330Z,101730.94
2023-05-09T07:47:56.846Z,101720.75
2023-05-09T07:52:58.305Z,101716.03
2023-05-09T07:57:59.721Z,101713.22
2023-05-09T08:03:01.478Z,101698.72
2023-05-09T08:08:03.248Z,101689.78
2023-05-09T08:13:04.665Z,101681.38
2023-05-09T08:18:06.180Z,101680.34
2023-05-09T08:23:07.718Z,101680.81
2023-05-09T08:28:09.172Z,101684.41
2023-05-09T08:33:10.616Z,101678.22
2023-05-09T08:38:12.084Z,101665.91
2023-05-09T08:43:16.618Z,101669.63
2023-05-09T08:48:19.060Z,101664.75
2023-05-09T08:53:20.734Z,101661.66
2023-05-09T08:58:22.196Z,101645.41
2023-05-09T09:03:24.368Z,101638.75
2023-05-09T09:08:26.112Z,101625.78
2023-05-09T09:13:28.912Z,101632.81
2023-05-09T09:18:33.403Z,101617.09
2023-05-09T09:23:37.123Z,101610.81
2023-05-09T09:28:38.747Z,101606.81
2023-05-09T09:33:40.178Z,101608.25
2023-05-09T09:38:42.523Z,101605.53
2023-05-09T09:43:45.925Z,101592.25
2023-05-09T09:48:47.358Z,101584.94
2023-05-09T09:53:48.792Z,101574.84
2023-05-09T09:58:50.272Z,101572.91
2023-05-09T10:03:51.748Z,101557.16
2023-05-09T10:08:53.264Z,101551.38
2023-05-09T10:13:54.797Z,101545.84
2023-05-09T10:18:56.529Z,101539.50
2023-05-09T10:23:59.118Z,101526.31
2023-05-09T10:29:04.426Z,101528.28
2023-05-09T10:34:09.812Z,101513.59
2023-05-09T10:39:11.403Z,101494.75
2023-05-09T10:44:12.981Z,101476.75
2023-05-09T10:49:15.149Z,101478.44
2023-05-09T10:54:29.199Z,101465.97
2023-05-09T10:59:42.728Z,101467.06
2023-05-09T11:04:45.058Z,101438.56
2023-05-09T11:09:51.603Z,101425.13
2023-05-09T11:14:53.052Z,101424.13
2023-05-09T11:19:59.586Z,101414.00
2023-05-09T11:25:10.115Z,101405.13
2023-05-09T11:30:14.344Z,101412.97
2023-05-09T11:35:21.154Z,101395.34
2023-05-09T11:40:22.852Z,101381.59
2023-05-09T11:45:32.046Z,101376.63
2023-05-09T11:50:33.504Z,101384.19
2023-05-09T11:55:37.617Z,101366.03
2023-05-09T12:00:44.887Z,101370.97
2023-05-09T12:05:48.290Z,101364.06
2023-05-09T12:10:49.988Z,101356.78
2023-05-09T12:15:51.489Z,101353.38
2023-05-09T12:20:53.311Z,101358.00
2023-05-09T12:25:56.720Z,101352.06
2023-05-09T12:30:58.662Z,101347.84
2023-05-09T12:36:04.972Z,101332.03
2023-05-09T12:41:29.872Z,101332.22
2023-05-09T12:46:32.128Z,101328.72
2023-05-09T12:51:33.610Z,101331.91
2023-05-09T12:56:35.069Z,101317.03
2023-05-09T13:01:36.474Z,101308.50
2023-05-09T13:06:48.477Z,101312.19
2023-05-09T13:11:51.311Z,101301.41
2023-05-09T13:16:52.812Z,101293.69
2023-05-09T13:21:55.078Z,101290.06
2023-05-09T13:26:56.514Z,101284.00
2023-05-09T13:31:57.915Z,101274.44
2023-05-09T13:36:59.342Z,101256.88
2023-05-09T13:42:00.737Z,101255.03
2023-05-09T13:47:02.221Z,101255.09
2023-05-09T13:52:04.288Z,101233.56
2023-05-09T13:57:05.744Z,101236.06
2023-05-09T14:02:08.035Z,101219.28
2023-05-09T14:07:09.534Z,101209.88
2023-05-09T14:12:11.736Z,101205.56
2023-05-09T14:17:14.305Z,101204.94
2023-05-09T14:22:15.724Z,101202.22
2023-05-09T14:27:17.143Z,101199.94
2023-05-09T14:32:18.572Z,101189.78
2023-05-09T14:37:19.969Z,101171.97
2023-05-09T14:42:21.384Z,101167.38
2023-05-09T14:47:22.814Z,101176.63
2023-05-09T14:52:24.245Z,101156.91
2023-05-09T14:57:25.720Z,101156.63
2023-05-09T15:02:27.221Z,101151.66
2023-05-09T15:07:28.677Z,101128.97
2023-05-09T15:12:30.207Z,101126.16
2023-05-09T15:17:31.663Z,101129.94
2023-05-09T15:22:33.184Z,101115.19
2023-05-09T15:27:34.642Z,101123.09
2023-05-09T15:32:41.373Z,101109.38
2023-05-09T15:37:42.865Z,101101.03
2023-05-09T15:42:44.319Z,101111.03
2023-05-09T15:47:45.848Z,101103.00
2023-05-09T15:52:47.505Z,101089.22
2023-05-09T15:57:48.889Z,101090.38
2023-05-09T16:02:50.889Z,101099.53
2023-05-09T16:07:52.342Z,101083.28
2023-05-09T16:12:53.784Z,101080.81
2023-05-09T16:17:55.241Z,101072.13
2023-05-09T16:22:56.672Z,101077.09
2023-05-09T16:27:58.135Z,101064.94
2023-05-09T16:32:59.667Z,101057.09
2023-05-09T16:38:01.373Z,101052.56
2023-05-09T16:43:02.960Z,101056.31
2023-05-09T16:48:04.736Z,101050.59
2023-05-09T16:53:06.239Z,101048.66
2023-05-09T16:58:07.694Z,101041.63
2023-05-09T17:03:09.154Z,101035.16
2023-05-09T17:08:10.616Z,101040.00
2023-05-09T17:13:12.105Z,101021.25
2023-05-09T17:18:15.309Z,101008.53
2023-05-09T17:23:20.652Z,101011.44
2023-05-09T17:28:22.084Z,101011.03
2023-05-09T17:33:23.544Z,101003.19
2023-05-09T17:38:24.952Z,101003.47
2023-05-09T17:43:26.364Z,101008.72
2023-05-09T17:48:27.786Z,101007.88
2023-05-09T17:53:29.203Z,101010.78
2023-05-09T17:58:30.604Z,101015.19
2023-05-09T18:03:32.485Z,101016.78
2023-05-09T18:08:34.032Z,101021.19
2023-05-09T18:13:36.744Z,101018.53
2023-05-09T18:18:38.167Z,101018.06
2023-05-09T18:23:40.525Z,101011.72
2023-05-09T18:28:41.917Z,101010.56
2023-05-09T18:33:43.724Z,101013.38
2023-05-09T18:38:45.175Z,101016.22
2023-05-09T18:43:46.595Z,101003.19
2023-05-09T18:48:51.171Z,101010.97
2023-05-09T18:53:52.704Z,101019.97
2023-05-09T18:58:54.113Z,101025.97
2023-05-09T19:03:55.686Z,101030.78
2023-05-09T19:08:57.182Z,101019.56
2023-05-09T19:13:58.764Z,101013.91
2023-05-09T19:19:00.799Z,101010.88
2023-05-09T19:24:03.177Z,101020.72
2023-05-09T19:29:04.690Z,101027.72
2023-05-09T19:34:06.109Z,101023.97
2023-05-09T19:39:07.546Z,101026.09
2023-05-09T19:44:09.183Z,101022.75
2023-05-09T19:49:10.883Z,101023.59
2023-05-09T19:54:12.313Z,101022.97
2023-05-09T19:59:13.951Z,101019.28
2023-05-09T20:04:15.360Z,101019.34
2023-05-09T20:09:16.809Z,101017.66
2023-05-09T20:14:18.259Z,101013.41
2023-05-09T20:19:20.007Z,101005.31
2023-05-09T20:24:21.468Z,101005.88
2023-05-09T20:29:24.781Z,101003.72
2023-05-09T20:34:26.214Z,100993.75
2023-05-09T20:39:27.705Z,100996.81
2023-05-09T20:44:29.141Z,100994.41
2023-05-09T20:49:30.814Z,100984.44
2023-05-09T20:54:32.208Z,100983.34
2023-05-09T20:59:33.847Z,100985.34
2023-05-09T21:04:35.281Z,100975.53
2023-05-09T21:09:36.700Z,100978.16
2023-05-09T21:14:38.188Z,100971.66
2023-05-09T21:19:39.602Z,100963.59
2023-05-09T21:24:41.117Z,100962.44
2023-05-09T21:29:42.550Z,100956.28
2023-05-09T21:34:43.983Z,100950.59
2023-05-09T21:39:45.449Z,100939.44
2023-05-09T21:44:46.857Z,100938.00
2023-05-09T21:49:48.348Z,100932.63
2023-05-09T21:54:49.786Z,100927.16
2023-05-09T21:59:51.363Z,100928.22
2023-05-09T22:04:52.840Z,100925.16
2023-05-09T22:09:54.274Z,100917.47
2023-05-09T22:14:56.871Z,100914.03
2023-05-09T22:19:58.510Z,100917.34
2023-05-09T22:24:59.945Z,100910.34
2023-05-09T22:30:01.431Z,100910.72
2023-05-09T22:35:02.949Z,100916.72
2023-05-09T22:40:04.981Z,100912.69
2023-05-09T22:45:07.217Z,100915.53
2023-05-09T22:50:10.155Z,100913.38
2023-05-09T22:55:11.696Z,100910.03
2023-05-09T23:00:13.971Z,100916.53
2023-05-09T23:05:15.611Z,100913.63
2023-05-09T23:10:17.352Z,100922.91
2023-05-09T23:15:19.105Z,100920.84
2023-05-09T23:20:20.655Z,100918.28
2023-05-09T23:25:22.291Z,100910.63
2023-05-09T23:30:23.764Z,100907.50
2023-05-09T23:35:26.530Z,100914.28
2023-05-09T23:40:27.998Z,100910.13
2023-05-09T23:45:29.496Z,100907.88
2023-05-09T23:50:31.218Z,100893.22
2023-05-09T23:55:32.692Z,100894.53
